Wetterdaten: Woche 15.09.14 - 21.09.14 (KW38)
Datum Zeit Temp. Aussen +5cm Feuchte Auss Luftdruck Regen Sonnenschein Regendauer UV Solar Windben
15.09.2014 00:00 13,2 C 11,7 C 90 % 1017,8 hPa 0,0 l/m 0,00 h 0,00 h 0,0 UV-I 0 W/m 0,0 km/h (0 Bft)
15.09.2014 01:00 12,9 C 11,7 C 92 % 1017,6 hPa 0,0 l/m 0,00 h 0,00 h 0,0 UV-I 0 W/m 0,0 km/h (0 Bft)
15.09.2014 02:00 13,0 C 11,9 C 93 % 1017,5 hPa 0,0 l/m 0,00 h 0,00 h 0,0 UV-I 0 W/m 0,0 km/h (0 Bft)
15.09.2014 03:00 12,8 C 11,4 C 94 % 1017,4 hPa 0,0 l/m 0,00 h 0,00 h 0,0 UV-I 0 W/m 0,0 km/h (0 Bft)
15.09.2014 04:00 12,6 C 11,1 C 94 % 1017,2 hPa 0,0 l/m 0,00 h 0,00 h 0,0 UV-I 0 W/m 0,0 km/h (0 Bft)
15.09.2014 05:00 12,0 C 10,2 C 94 % 1016,9 hPa 0,0 l/m 0,00 h 0,00 h 0,0 UV-I 0 W/m 0,0 km/h (0 Bft)
15.09.2014 06:00 11,3 C 9,6 C 94 % 1016,7 hPa 0,0 l/m 0,00 h 0,00 h 0,0 UV-I 0 W/m 0,0 km/h (0 Bft)
15.09.2014 07:00 10,8 C 9,6 C 94 % 1016,8 hPa 0,0 l/m 0,00 h 0,00 h 0,0 UV-I 11 W/m 0,1 km/h (0 Bft)
15.09.2014 08:00 11,5 C 11,7 C 96 % 1016,9 hPa 0,0 l/m 0,47 h 0,00 h 0,0 UV-I 94 W/m 1,0 km/h (0 Bft)
15.09.2014 09:00 14,3 C 15,2 C 98 % 1016,9 hPa 0,0 l/m 1,00 h 0,00 h 0,0 UV-I 274 W/m 0,6 km/h (0 Bft)
15.09.2014 10:00 16,7 C 16,9 C 97 % 1017,0 hPa 0,0 l/m 1,00 h 0,00 h 0,0 UV-I 424 W/m 1,7 km/h (1 Bft)
15.09.2014 11:00 19,4 C 18,5 C 82 % 1017,1 hPa 0,0 l/m 0,43 h 0,00 h 0,0 UV-I 326 W/m 3,9 km/h (1 Bft)
15.09.2014 12:00 20,2 C 19,2 C 78 % 1016,8 hPa 0,0 l/m 0,20 h 0,00 h 0,0 UV-I 262 W/m 2,2 km/h (1 Bft)
15.09.2014 13:00 22,0 C 21,0 C 75 % 1016,5 hPa 0,0 l/m 0,20 h 0,00 h 0,0 UV-I 270 W/m 6,0 km/h (2 Bft)
15.09.2014 14:00 23,7 C 21,9 C 69 % 1016,0 hPa 0,0 l/m 0,47 h 0,00 h 0,0 UV-I 321 W/m 7,6 km/h (2 Bft)
15.09.2014 15:00 24,1 C 21,5 C 66 % 1015,4 hPa 0,0 l/m 0,40 h 0,00 h 0,0 UV-I 321 W/m 11,1 km/h (2 Bft)
15.09.2014 16:00 23,4 C 21,6 C 66 % 1015,2 hPa 0,0 l/m 0,77 h 0,00 h 0,0 UV-I 299 W/m 11,9 km/h (2 Bft)
15.09.2014 17:00 23,5 C 21,6 C 67 % 1015,1 hPa 0,0 l/m 0,00 h 0,00 h 0,0 UV-I 122 W/m 10,4 km/h (2 Bft)
15.09.2014 18:00 22,7 C 19,9 C 72 % 1015,0 hPa 0,4 l/m 0,00 h 0,23 h 0,0 UV-I 62 W/m 4,6 km/h (1 Bft)
15.09.2014 19:00 21,0 C 16,6 C 83 % 1015,0 hPa 0,0 l/m 0,00 h 0,10 h 0,0 UV-I 10 W/m 1,4 km/h (1 Bft)
15.09.2014 20:00 19,2 C 15,5 C 87 % 1015,2 hPa 0,0 l/m 0,00 h 0,00 h 0,0 UV-I 0 W/m 0,3 km/h (0 Bft)
15.09.2014 21:00 18,1 C 15,1 C 90 % 1015,5 hPa 0,0 l/m 0,00 h 0,00 h 0,0 UV-I 0 W/m 0,5 km/h (0 Bft)
15.09.2014 22:00 17,5 C 15,0 C 92 % 1015,5 hPa 0,0 l/m 0,00 h 0,00 h 0,0 UV-I 0 W/m 0,2 km/h (0 Bft)
15.09.2014 23:00 16,9 C 14,4 C 93 % 1015,7 hPa 0,0 l/m 0,00 h 0,00 h 0,0 UV-I 0 W/m 0,2 km/h (0 Bft)
16.09.2014 00:00 16,5 C 14,1 C 93 % 1015,7 hPa 0,0 l/m 0,00 h 0,00 h 0,0 UV-I 0 W/m 0,1 km/h (0 Bft)
16.09.2014 01:00 15,9 C 13,9 C 94 % 1015,6 hPa 0,0 l/m 0,00 h 0,00 h 0,0 UV-I 0 W/m 0,0 km/h (0 Bft)
16.09.2014 02:00 15,4 C 13,5 C 94 % 1015,4 hPa 0,0 l/m 0,00 h 0,00 h 0,0 UV-I 0 W/m 0,0 km/h (0 Bft)
16.09.2014 03:00 15,3 C 13,9 C 95 % 1015,4 hPa 0,0 l/m 0,00 h 0,00 h 0,0 UV-I 0 W/m 0,0 km/h (0 Bft)
16.09.2014 04:00 15,1 C 13,2 C 95 % 1015,1 hPa 0,0 l/m 0,00 h 0,00 h 0,0 UV-I 0 W/m 0,0 km/h (0 Bft)
16.09.2014 05:00 15,0 C 13,9 C 96 % 1015,0 hPa 0,0 l/m 0,00 h 0,00 h 0,0 UV-I 0 W/m 0,0 km/h (0 Bft)
16.09.2014 06:00 14,9 C 13,2 C 96 % 1015,1 hPa 0,0 l/m 0,00 h 0,00 h 0,0 UV-I 0 W/m 0,0 km/h (0 Bft)
16.09.2014 07:00 14,4 C 13,0 C 96 % 1015,2 hPa 0,0 l/m 0,00 h 0,00 h 0,0 UV-I 15 W/m 0,0 km/h (0 Bft)
16.09.2014 08:00 14,8 C 13,9 C 97 % 1015,2 hPa 0,0 l/m 0,13 h 0,00 h 0,0 UV-I 66 W/m 0,0 km/h (0 Bft)
16.09.2014 09:00 16,5 C 15,9 C 98 % 1015,4 hPa 0,0 l/m 0,00 h 0,00 h 0,0 UV-I 55 W/m 2,7 km/h (1 Bft)
16.09.2014 10:00 19,1 C 18,0 C 95 % 1015,5 hPa 0,0 l/m 0,20 h 0,00 h 0,0 UV-I 192 W/m 8,9 km/h (2 Bft)
16.09.2014 11:00 21,8 C 19,9 C 82 % 1015,1 hPa 0,0 l/m 0,40 h 0,00 h 0,0 UV-I 325 W/m 6,6 km/h (2 Bft)
16.09.2014 12:00 24,3 C 21,4 C 72 % 1014,9 hPa 0,0 l/m 0,47 h 0,00 h 0,0 UV-I 398 W/m 8,5 km/h (2 Bft)
16.09.2014 13:00 24,6 C 22,2 C 69 % 1014,5 hPa 0,0 l/m 0,87 h 0,00 h 0,0 UV-I 655 W/m 9,4 km/h (2 Bft)
16.09.2014 14:00 25,5 C 23,6 C 65 % 1014,2 hPa 0,0 l/m 0,77 h 0,00 h 0,0 UV-I 592 W/m 14,4 km/h (3 Bft)
16.09.2014 15:00 26,5 C 23,5 C 60 % 1013,7 hPa 0,0 l/m 0,47 h 0,00 h 0,0 UV-I 359 W/m 17,7 km/h (3 Bft)
16.09.2014 16:00 25,9 C 22,7 C 60 % 1013,4 hPa 0,0 l/m 0,70 h 0,00 h 0,0 UV-I 364 W/m 14,6 km/h (3 Bft)
16.09.2014 17:00 25,7 C 22,2 C 60 % 1013,2 hPa 0,0 l/m 0,47 h 0,00 h 0,0 UV-I 196 W/m 13,6 km/h (3 Bft)
16.09.2014 18:00 25,1 C 21,0 C 61 % 1013,3 hPa 0,0 l/m 0,23 h 0,00 h 0,0 UV-I 64 W/m 9,0 km/h (2 Bft)
16.09.2014 19:00 23,2 C 18,3 C 67 % 1013,2 hPa 0,0 l/m 0,07 h 0,00 h 0,0 UV-I 20 W/m 0,9 km/h (0 Bft)
16.09.2014 20:00 20,3 C 16,0 C 77 % 1013,5 hPa 0,0 l/m 0,00 h 0,00 h 0,0 UV-I 0 W/m 0,0 km/h (0 Bft)
16.09.2014 21:00 18,0 C 14,8 C 84 % 1013,6 hPa 0,0 l/m 0,00 h 0,00 h 0,0 UV-I 0 W/m 0,0 km/h (0 Bft)
16.09.2014 22:00 16,7 C 14,1 C 87 % 1013,6 hPa 0,0 l/m 0,00 h 0,00 h 0,0 UV-I 0 W/m 0,0 km/h (0 Bft)
16.09.2014 23:00 15,7 C 13,5 C 89 % 1013,8 hPa 0,0 l/m 0,00 h 0,00 h 0,0 UV-I 0 W/m 0,0 km/h (0 Bft)
17.09.2014 00:00 15,0 C 13,0 C 90 % 1013,6 hPa 0,0 l/m 0,00 h 0,00 h 0,0 UV-I 0 W/m 0,1 km/h (0 Bft)
17.09.2014 01:00 14,6 C 12,8 C 92 % 1013,4 hPa 0,0 l/m 0,00 h 0,00 h 0,0 UV-I 0 W/m 0,1 km/h (0 Bft)
17.09.2014 02:00 14,4 C 12,5 C 94 % 1013,2 hPa 0,0 l/m 0,00 h 0,00 h 0,0 UV-I 0 W/m 0,1 km/h (0 Bft)
17.09.2014 03:00 14,2 C 12,4 C 95 % 1013,2 hPa 0,0 l/m 0,00 h 0,00 h 0,0 UV-I 0 W/m 0,1 km/h (0 Bft)
17.09.2014 04:00 13,9 C 12,2 C 95 % 1013,3 hPa 0,0 l/m 0,00 h 0,00 h 0,0 UV-I 0 W/m 0,1 km/h (0 Bft)
17.09.2014 05:00 13,6 C 11,8 C 96 % 1013,1 hPa 0,0 l/m 0,00 h 0,00 h 0,0 UV-I 0 W/m 0,3 km/h (0 Bft)
17.09.2014 06:00 13,3 C 11,7 C 96 % 1013,1 hPa 0,0 l/m 0,00 h 0,00 h 0,0 UV-I 0 W/m 0,2 km/h (0 Bft)
17.09.2014 07:00 13,0 C 11,5 C 96 % 1013,0 hPa 0,0 l/m 0,50 h 0,00 h 0,0 UV-I 120 W/m 0,1 km/h (0 Bft)
17.09.2014 08:00 13,3 C 12,6 C 97 % 1012,9 hPa 0,2 l/m 1,00 h 0,00 h 0,0 UV-I 324 W/m 1,0 km/h (0 Bft)
17.09.2014 09:00 15,3 C 14,8 C 98 % 1012,9 hPa 0,0 l/m 0,97 h 0,00 h 0,0 UV-I 302 W/m 9,0 km/h (2 Bft)
17.09.2014 10:00 18,5 C 17,5 C 93 % 1012,9 hPa 0,0 l/m 0,97 h 0,00 h 0,0 UV-I 407 W/m 13,7 km/h (3 Bft)
17.09.2014 11:00 22,2 C 19,8 C 76 % 1012,7 hPa 0,0 l/m 1,00 h 0,00 h 0,0 UV-I 538 W/m 13,6 km/h (3 Bft)
17.09.2014 12:00 24,5 C 21,5 C 68 % 1012,2 hPa 0,0 l/m 0,97 h 0,00 h 0,0 UV-I 674 W/m 13,8 km/h (3 Bft)
17.09.2014 13:00 26,1 C 22,9 C 63 % 1011,8 hPa 0,0 l/m 1,00 h 0,00 h 0,0 UV-I 686 W/m 15,0 km/h (3 Bft)
17.09.2014 14:00 26,8 C 23,5 C 59 % 1011,5 hPa 0,0 l/m 1,00 h 0,00 h 0,0 UV-I 594 W/m 15,2 km/h (3 Bft)
17.09.2014 15:00 26,0 C 24,8 C 61 % 1011,0 hPa 0,0 l/m 0,97 h 0,00 h 2,1 UV-I 517 W/m 8,7 km/h (2 Bft)
17.09.2014 16:00 26,1 C 24,2 C 59 % 1010,6 hPa 0,0 l/m 1,00 h 0,00 h 2,2 UV-I 440 W/m 13,7 km/h (3 Bft)
17.09.2014 17:00 25,8 C 22,9 C 59 % 1010,4 hPa 0,0 l/m 0,98 h 0,00 h 2,2 UV-I 281 W/m 13,8 km/h (3 Bft)
17.09.2014 18:00 25,3 C 21,5 C 60 % 1010,5 hPa 0,0 l/m 0,67 h 0,00 h 2,2 UV-I 105 W/m 11,1 km/h (2 Bft)
17.09.2014 19:00 23,8 C 18,6 C 65 % 1010,6 hPa 0,0 l/m 0,03 h 0,00 h 0,0 UV-I 16 W/m 5,0 km/h (1 Bft)
17.09.2014 20:00 20,6 C 16,2 C 76 % 1010,8 hPa 0,0 l/m 0,00 h 0,00 h 0,0 UV-I 0 W/m 1,6 km/h (1 Bft)
17.09.2014 21:00 18,3 C 15,1 C 82 % 1010,9 hPa 0,0 l/m 0,00 h 0,00 h 0,0 UV-I 0 W/m 0,0 km/h (0 Bft)
17.09.2014 22:00 16,9 C 14,4 C 86 % 1010,8 hPa 0,0 l/m 0,00 h 0,00 h 0,0 UV-I 0 W/m 0,2 km/h (0 Bft)
17.09.2014 23:00 16,0 C 13,8 C 88 % 1010,8 hPa 0,0 l/m 0,00 h 0,00 h 0,0 UV-I 0 W/m 2,1 km/h (1 Bft)
18.09.2014 00:00 15,3 C 13,3 C 90 % 1010,7 hPa 0,0 l/m 0,00 h 0,00 h 0,0 UV-I 0 W/m 3,2 km/h (1 Bft)
18.09.2014 01:00 14,8 C 13,3 C 92 % 1010,7 hPa 0,0 l/m 0,00 h 0,00 h 0,0 UV-I 0 W/m 3,9 km/h (1 Bft)
18.09.2014 02:00 14,6 C 12,8 C 93 % 1010,5 hPa 0,0 l/m 0,00 h 0,00 h 0,0 UV-I 0 W/m 4,7 km/h (1 Bft)
18.09.2014 03:00 14,6 C 12,8 C 95 % 1010,4 hPa 0,0 l/m 0,00 h 0,00 h 0,0 UV-I 0 W/m 5,5 km/h (1 Bft)
18.09.2014 04:00 14,5 C 12,8 C 96 % 1010,1 hPa 0,0 l/m 0,00 h 0,00 h 0,0 UV-I 0 W/m 6,3 km/h (2 Bft)
18.09.2014 05:00 14,4 C 12,9 C 96 % 1009,9 hPa 0,0 l/m 0,00 h 0,00 h 0,0 UV-I 0 W/m 4,7 km/h (1 Bft)
18.09.2014 06:00 14,6 C 13,8 C 96 % 1010,1 hPa 0,0 l/m 0,00 h 0,00 h 0,0 UV-I 0 W/m 6,0 km/h (2 Bft)
18.09.2014 07:00 15,0 C 14,2 C 97 % 1010,3 hPa 0,0 l/m 0,33 h 0,00 h 1,8 UV-I 24 W/m 8,1 km/h (2 Bft)
18.09.2014 08:00 15,5 C 14,9 C 97 % 1010,2 hPa 0,0 l/m 0,50 h 0,00 h 2,2 UV-I 91 W/m 9,8 km/h (2 Bft)
18.09.2014 09:00 16,3 C 15,8 C 96 % 1010,2 hPa 0,0 l/m 0,00 h 0,27 h 2,2 UV-I 73 W/m 9,0 km/h (2 Bft)
18.09.2014 10:00 17,1 C 16,0 C 94 % 1010,5 hPa 0,0 l/m 0,00 h 0,13 h 2,2 UV-I 129 W/m 11,8 km/h (2 Bft)
18.09.2014 11:00 17,9 C 17,1 C 93 % 1010,7 hPa 0,0 l/m 0,00 h 0,03 h 2,2 UV-I 116 W/m 11,1 km/h (2 Bft)
18.09.2014 12:00 19,0 C 18,7 C 91 % 1010,8 hPa 0,0 l/m 0,00 h 0,00 h 2,2 UV-I 190 W/m 11,4 km/h (2 Bft)
18.09.2014 13:00 20,1 C 18,5 C 90 % 1010,7 hPa 0,0 l/m 0,00 h 0,23 h 2,2 UV-I 190 W/m 10,8 km/h (2 Bft)
18.09.2014 14:00 20,9 C 20,0 C 88 % 1010,4 hPa 0,0 l/m 0,00 h 0,07 h 2,2 UV-I 208 W/m 8,4 km/h (2 Bft)
18.09.2014 15:00 21,4 C 18,3 C 89 % 1010,1 hPa 1,6 l/m 0,00 h 1,00 h 2,1 UV-I 75 W/m 8,5 km/h (2 Bft)
18.09.2014 16:00 20,6 C 18,6 C 92 % 1009,7 hPa 0,4 l/m 0,23 h 0,37 h 2,2 UV-I 188 W/m 11,8 km/h (2 Bft)
18.09.2014 17:00 20,6 C 18,4 C 93 % 1009,7 hPa 0,0 l/m 0,07 h 0,13 h 2,2 UV-I 100 W/m 12,1 km/h (2 Bft)
18.09.2014 18:00 20,5 C 18,1 C 94 % 1009,6 hPa 0,0 l/m 0,00 h 0,00 h 2,0 UV-I 53 W/m 8,8 km/h (2 Bft)
18.09.2014 19:00 19,9 C 17,4 C 93 % 1009,5 hPa 0,6 l/m 0,00 h 0,13 h 0,0 UV-I 6 W/m 11,3 km/h (2 Bft)
18.09.2014 20:00 19,3 C 17,0 C 95 % 1009,8 hPa 9,2 l/m 0,00 h 1,00 h 0,0 UV-I 0 W/m 14,1 km/h (3 Bft)
18.09.2014 21:00 17,7 C 15,7 C 95 % 1010,6 hPa 11,4 l/m 0,00 h 1,00 h 0,0 UV-I 0 W/m 9,5 km/h (2 Bft)
18.09.2014 22:00 17,3 C 15,7 C 96 % 1010,5 hPa 2,6 l/m 0,00 h 1,00 h 0,0 UV-I 0 W/m 9,4 km/h (2 Bft)
18.09.2014 23:00 17,2 C 16,0 C 97 % 1010,4 hPa 0,4 l/m 0,00 h 0,63 h 0,0 UV-I 0 W/m 7,1 km/h (2 Bft)
19.09.2014 00:00 17,3 C 16,0 C 98 % 1010,2 hPa 1,4 l/m 0,00 h 0,62 h 0,0 UV-I 0 W/m 11,2 km/h (2 Bft)
19.09.2014 01:00 17,2 C 15,6 C 98 % 1010,1 hPa 0,0 l/m 0,00 h 0,00 h 0,0 UV-I 0 W/m 12,7 km/h (3 Bft)
19.09.2014 02:00 16,8 C 15,1 C 98 % 1009,9 hPa 0,0 l/m 0,00 h 0,00 h 0,0 UV-I 0 W/m 6,4 km/h (2 Bft)
19.09.2014 03:00 16,5 C 14,9 C 98 % 1009,6 hPa 0,0 l/m 0,00 h 0,00 h 0,0 UV-I 0 W/m 6,2 km/h (2 Bft)
19.09.2014 04:00 16,3 C 14,9 C 98 % 1009,5 hPa 0,0 l/m 0,00 h 0,00 h 0,0 UV-I 0 W/m 6,4 km/h (2 Bft)
19.09.2014 05:00 16,2 C 14,6 C 99 % 1009,5 hPa 0,2 l/m 0,00 h 0,00 h 0,0 UV-I 0 W/m 8,7 km/h (2 Bft)
19.09.2014 06:00 15,8 C 14,1 C 99 % 1009,6 hPa 0,0 l/m 0,00 h 0,00 h 0,0 UV-I 0 W/m 5,1 km/h (1 Bft)
19.09.2014 07:00 15,3 C 13,6 C 99 % 1010,1 hPa 0,0 l/m 0,20 h 0,00 h 0,0 UV-I 19 W/m 1,8 km/h (1 Bft)
19.09.2014 08:00 15,3 C 14,4 C 99 % 1010,6 hPa 0,0 l/m 0,60 h 0,00 h 2,2 UV-I 105 W/m 5,3 km/h (1 Bft)
19.09.2014 09:00 16,8 C 16,2 C 99 % 1011,1 hPa 0,0 l/m 1,00 h 0,00 h 2,2 UV-I 243 W/m 5,1 km/h (1 Bft)
19.09.2014 10:00 18,8 C 17,9 C 100 % 1011,2 hPa 0,0 l/m 1,00 h 0,00 h 2,2 UV-I 378 W/m 8,9 km/h (2 Bft)
19.09.2014 11:00 20,4 C 18,7 C 97 % 1010,9 hPa 0,0 l/m 0,70 h 0,00 h 2,2 UV-I 351 W/m 6,7 km/h (2 Bft)
19.09.2014 12:00 22,4 C 20,2 C 87 % 1011,0 hPa 0,0 l/m 0,97 h 0,00 h 2,2 UV-I 548 W/m 7,7 km/h (2 Bft)
19.09.2014 13:00 24,3 C 21,9 C 80 % 1011,2 hPa 0,0 l/m 0,87 h 0,00 h 2,2 UV-I 486 W/m 9,1 km/h (2 Bft)
19.09.2014 14:00 25,0 C 22,6 C 77 % 1011,1 hPa 0,0 l/m 0,80 h 0,00 h 2,2 UV-I 476 W/m 9,7 km/h (2 Bft)
19.09.2014 15:00 26,0 C 23,1 C 72 % 1011,1 hPa 0,0 l/m 0,90 h 0,00 h 2,2 UV-I 469 W/m 11,9 km/h (2 Bft)
19.09.2014 16:00 24,9 C 22,9 C 74 % 1011,0 hPa 0,0 l/m 0,90 h 0,00 h 2,2 UV-I 374 W/m 9,0 km/h (2 Bft)
19.09.2014 17:00 24,7 C 22,1 C 74 % 1011,0 hPa 0,0 l/m 0,83 h 0,00 h 2,2 UV-I 259 W/m 7,6 km/h (2 Bft)
19.09.2014 18:00 23,6 C 21,1 C 79 % 1011,0 hPa 0,0 l/m 0,43 h 0,00 h 2,2 UV-I 91 W/m 6,0 km/h (2 Bft)
19.09.2014 19:00 21,8 C 19,4 C 87 % 1011,2 hPa 0,0 l/m 0,17 h 0,00 h 0,0 UV-I 20 W/m 5,3 km/h (1 Bft)
19.09.2014 20:00 20,1 C 17,7 C 92 % 1011,7 hPa 0,0 l/m 0,00 h 0,00 h 0,0 UV-I 0 W/m 3,2 km/h (1 Bft)
19.09.2014 21:00 19,1 C 16,8 C 94 % 1012,4 hPa 0,0 l/m 0,00 h 0,00 h 0,0 UV-I 0 W/m 1,9 km/h (1 Bft)
19.09.2014 22:00 18,3 C 16,1 C 94 % 1012,5 hPa 0,0 l/m 0,00 h 0,00 h 0,0 UV-I 0 W/m 1,2 km/h (1 Bft)
19.09.2014 23:00 17,5 C 15,5 C 94 % 1012,6 hPa 0,0 l/m 0,00 h 0,00 h 0,0 UV-I 0 W/m 0,9 km/h (0 Bft)
20.09.2014 00:00 16,9 C 15,0 C 94 % 1012,6 hPa 0,0 l/m 0,00 h 0,00 h 0,0 UV-I 0 W/m 0,8 km/h (0 Bft)
20.09.2014 01:00 16,4 C 14,5 C 95 % 1012,6 hPa 0,0 l/m 0,00 h 0,00 h 0,0 UV-I 0 W/m 2,9 km/h (1 Bft)
20.09.2014 02:00 16,1 C 14,6 C 96 % 1012,6 hPa 0,0 l/m 0,00 h 0,00 h 0,0 UV-I 0 W/m 3,6 km/h (1 Bft)
20.09.2014 03:00 16,3 C 14,9 C 97 % 1012,5 hPa 0,0 l/m 0,00 h 0,00 h 0,0 UV-I 0 W/m 4,2 km/h (1 Bft)
20.09.2014 04:00 16,0 C 14,3 C 97 % 1012,6 hPa 0,0 l/m 0,00 h 0,00 h 0,0 UV-I 0 W/m 4,1 km/h (1 Bft)
20.09.2014 05:00 15,6 C 14,0 C 97 % 1012,6 hPa 0,0 l/m 0,00 h 0,00 h 0,0 UV-I 0 W/m 4,1 km/h (1 Bft)
20.09.2014 06:00 15,3 C 13,8 C 97 % 1012,7 hPa 0,0 l/m 0,00 h 0,00 h 0,0 UV-I 0 W/m 2,2 km/h (1 Bft)
20.09.2014 07:00 15,1 C 13,9 C 98 % 1013,0 hPa 0,0 l/m 0,23 h 0,00 h 0,0 UV-I 19 W/m 2,2 km/h (1 Bft)
20.09.2014 08:00 15,2 C 14,3 C 98 % 1013,2 hPa 0,0 l/m 0,07 h 0,00 h 2,0 UV-I 53 W/m 3,2 km/h (1 Bft)
20.09.2014 09:00 16,5 C 16,5 C 99 % 1013,7 hPa 0,0 l/m 0,37 h 0,00 h 2,2 UV-I 148 W/m 5,8 km/h (2 Bft)
20.09.2014 10:00 18,4 C 18,2 C 99 % 1013,9 hPa 0,0 l/m 0,87 h 0,00 h 2,2 UV-I 368 W/m 8,6 km/h (2 Bft)
20.09.2014 11:00 20,6 C 20,2 C 97 % 1013,9 hPa 0,0 l/m 0,70 h 0,00 h 2,2 UV-I 346 W/m 8,7 km/h (2 Bft)
20.09.2014 12:00 22,3 C 21,0 C 86 % 1013,9 hPa 0,0 l/m 0,35 h 0,03 h 2,2 UV-I 300 W/m 8,6 km/h (2 Bft)
20.09.2014 13:00 23,3 C 22,1 C 83 % 1013,8 hPa 0,0 l/m 1,00 h 0,00 h 2,2 UV-I 458 W/m 10,8 km/h (2 Bft)
20.09.2014 14:00 25,0 C 22,9 C 77 % 1013,3 hPa 0,0 l/m 0,87 h 0,00 h 2,2 UV-I 578 W/m 10,8 km/h (2 Bft)
20.09.2014 15:00 26,3 C 23,3 C 69 % 1012,8 hPa 0,0 l/m 1,00 h 0,00 h 2,2 UV-I 518 W/m 12,8 km/h (3 Bft)
20.09.2014 16:00 25,5 C 22,7 C 70 % 1012,7 hPa 0,0 l/m 0,60 h 0,00 h 2,2 UV-I 250 W/m 13,5 km/h (3 Bft)
20.09.2014 17:00 24,2 C 21,7 C 75 % 1013,0 hPa 0,0 l/m 0,90 h 0,07 h 2,2 UV-I 243 W/m 15,4 km/h (3 Bft)
20.09.2014 18:00 23,5 C 20,2 C 78 % 1013,2 hPa 0,0 l/m 0,52 h 0,00 h 2,2 UV-I 81 W/m 7,1 km/h (2 Bft)
20.09.2014 19:00 21,6 C 18,3 C 77 % 1013,3 hPa 0,0 l/m 0,00 h 0,00 h 0,0 UV-I 9 W/m 7,1 km/h (2 Bft)
20.09.2014 20:00 19,5 C 16,2 C 82 % 1013,9 hPa 0,0 l/m 0,00 h 0,00 h 0,0 UV-I 0 W/m 1,1 km/h (0 Bft)
20.09.2014 21:00 17,9 C 15,2 C 87 % 1014,3 hPa 0,0 l/m 0,00 h 0,00 h 0,0 UV-I 0 W/m 2,2 km/h (1 Bft)
20.09.2014 22:00 17,0 C 15,1 C 90 % 1014,5 hPa 0,0 l/m 0,00 h 0,00 h 0,0 UV-I 0 W/m 2,7 km/h (1 Bft)
20.09.2014 23:00 16,6 C 15,0 C 92 % 1014,7 hPa 0,0 l/m 0,00 h 0,00 h 0,0 UV-I 0 W/m 2,3 km/h (1 Bft)
21.09.2014 00:00 16,4 C 15,0 C 93 % 1014,7 hPa 0,0 l/m 0,00 h 0,00 h 0,0 UV-I 0 W/m 5,0 km/h (1 Bft)
21.09.2014 01:00 16,4 C 15,5 C 94 % 1014,7 hPa 0,0 l/m 0,00 h 0,00 h 0,0 UV-I 0 W/m 4,1 km/h (1 Bft)
21.09.2014 02:00 16,7 C 15,6 C 95 % 1014,8 hPa 0,0 l/m 0,00 h 0,00 h 0,0 UV-I 0 W/m 5,5 km/h (1 Bft)
21.09.2014 03:00 16,8 C 15,6 C 96 % 1014,6 hPa 0,0 l/m 0,00 h 0,00 h 0,0 UV-I 0 W/m 10,0 km/h (2 Bft)
21.09.2014 04:00 16,7 C 15,6 C 96 % 1014,5 hPa 0,0 l/m 0,00 h 0,00 h 0,0 UV-I 0 W/m 6,4 km/h (2 Bft)
21.09.2014 05:00 16,6 C 15,6 C 96 % 1014,5 hPa 0,0 l/m 0,00 h 0,00 h 0,0 UV-I 0 W/m 6,9 km/h (2 Bft)
21.09.2014 06:00 16,4 C 15,1 C 96 % 1014,5 hPa 0,0 l/m 0,00 h 0,00 h 0,0 UV-I 0 W/m 8,0 km/h (2 Bft)
21.09.2014 07:00 16,2 C 15,0 C 96 % 1014,5 hPa 0,0 l/m 0,00 h 0,00 h 0,0 UV-I 7 W/m 7,1 km/h (2 Bft)
21.09.2014 08:00 16,3 C 15,0 C 97 % 1014,9 hPa 0,2 l/m 0,00 h 0,37 h 1,7 UV-I 20 W/m 8,7 km/h (2 Bft)
21.09.2014 09:00 16,2 C 14,7 C 97 % 1015,2 hPa 0,2 l/m 0,00 h 0,37 h 1,7 UV-I 42 W/m 15,9 km/h (3 Bft)
21.09.2014 10:00 15,9 C 14,4 C 97 % 1016,1 hPa 0,6 l/m 0,00 h 1,00 h 2,0 UV-I 65 W/m 17,4 km/h (3 Bft)
21.09.2014 11:00 15,7 C 14,5 C 96 % 1016,5 hPa 0,2 l/m 0,17 h 0,13 h 2,1 UV-I 183 W/m 23,6 km/h (4 Bft)
21.09.2014 12:00 16,6 C 15,1 C 88 % 1016,8 hPa 0,0 l/m 0,33 h 0,00 h 2,2 UV-I 333 W/m 20,8 km/h (4 Bft)
21.09.2014 13:00 17,0 C 14,7 C 83 % 1017,0 hPa 0,0 l/m 0,10 h 0,23 h 2,0 UV-I 144 W/m 19,6 km/h (3 Bft)
21.09.2014 14:00 16,9 C 15,9 C 80 % 1017,1 hPa 0,0 l/m 0,37 h 0,03 h 2,2 UV-I 278 W/m 17,5 km/h (3 Bft)
21.09.2014 15:00 18,8 C 17,4 C 68 % 1016,9 hPa 0,0 l/m 0,70 h 0,00 h 2,2 UV-I 461 W/m 22,1 km/h (4 Bft)
21.09.2014 16:00 18,4 C 16,6 C 68 % 1017,0 hPa 0,0 l/m 0,57 h 0,07 h 2,2 UV-I 254 W/m 23,4 km/h (4 Bft)
21.09.2014 17:00 17,7 C 15,8 C 68 % 1017,3 hPa 0,0 l/m 0,13 h 0,00 h 2,2 UV-I 111 W/m 25,7 km/h (4 Bft)
21.09.2014 18:00 16,3 C 14,8 C 73 % 1017,9 hPa 0,0 l/m 0,00 h 0,00 h 2,1 UV-I 50 W/m 25,8 km/h (4 Bft)
21.09.2014 19:00 15,5 C 13,8 C 76 % 1018,6 hPa 0,0 l/m 0,00 h 0,00 h 0,0 UV-I 11 W/m 18,7 km/h (3 Bft)
21.09.2014 20:00 14,4 C 12,1 C 80 % 1018,9 hPa 0,0 l/m 0,00 h 0,00 h 0,0 UV-I 0 W/m 10,0 km/h (2 Bft)
21.09.2014 21:00 13,1 C 10,6 C 84 % 1019,4 hPa 0,0 l/m 0,00 h 0,00 h 0,0 UV-I 0 W/m 6,7 km/h (2 Bft)
21.09.2014 22:00 12,0 C 10,5 C 88 % 1019,6 hPa 0,0 l/m 0,00 h 0,00 h 0,0 UV-I 0 W/m 7,4 km/h (2 Bft)
21.09.2014 23:00 11,6 C 10,3 C 91 % 1019,8 hPa 0,0 l/m 0,00 h 0,00 h 0,0 UV-I 0 W/m 10,6 km/h (2 Bft)
Min-Datum _ 15.09.14 15.09.14 17.09.14 18.09.14 - - - - - 15.09.14
_ Min-Zeit 07:22 06:20 16:54 19:42 - - - - - 00:00
Minimum _ 10,7 C 9,4 C 56 % 1009,3 hPa - - - - - 0,0 km/h (0 Bft)
Max-Datum _ 17.09.14 17.09.14 19.09.14 21.09.14 18.09.14 15.09.14 15.09.14 17.09.14 15.09.14 21.09.14
_ Max-Zeit 14:42 15:00 09:32 23:48 21:32 08:32 18:46 15:22 12:28 18:52
Maximum _ 27,1 C 26,1 C 100 % 1020,1 hPa 11,4 l/m 0,03 h 0,03 h 2,2 UV-I 868 W/m 37,7 km/h
N (5 Bft)
Durchschnitt _ 18,3 C 16,4 C 87 % 1013,4 hPa #29,6 l/m #41:05 h #9:17 h 2,1 UV-I 238 W/m 6,8 km/h (2 Bft)
© 2014 W. Hausmann